Time;durP1;ratioP1;P1;durP2;ratioP2;P2;SDS_P1;SDS_P2;PMS_P1;PMS_P2;Temp;Humidity;BMP_temperature;BMP_pressure;BME280_temperature;BME280_humidity;BME280_pressure;Samples;Min_cycle;Max_cycle;Signal;HPM_P1;HPM_P2
2022/08/11 00:02:32;;;;;;;8.30;5.75;;;17.90;99.90;;;;;;4992479;28;20050;-76
2022/08/11 00:05:04;;;;;;;7.15;6.35;;;17.90;99.90;;;;;;4993487;28;20055;-76
2022/08/11 00:07:30;;;;;;;8.07;6.07;;;17.90;99.90;;;;;;4995699;28;20042;-76
2022/08/11 00:09:58;;;;;;;6.28;4.78;;;17.90;99.90;;;;;;4996167;28;20046;-76
2022/08/11 00:12:24;;;;;;;10.73;7.03;;;17.90;99.90;;;;;;4995987;28;20083;-77
2022/08/11 00:14:58;;;;;;;15.43;11.02;;;17.90;99.90;;;;;;4996013;28;20455;-76
2022/08/11 00:17:30;;;;;;;14.52;12.95;;;17.90;99.90;;;;;;4995690;28;20046;-76
2022/08/11 00:20:03;;;;;;;15.60;12.82;;;17.80;99.90;;;;;;4996072;28;20152;-75
2022/08/11 00:22:30;;;;;;;14.85;12.75;;;17.80;99.90;;;;;;4995925;28;20470;-76
2022/08/11 00:24:56;;;;;;;13.25;11.85;;;17.80;99.90;;;;;;4978953;28;20398;-76
2022/08/11 00:27:35;;;;;;;14.63;12.52;;;17.80;99.90;;;;;;4995854;28;20051;-77
2022/08/11 00:30:04;;;;;;;15.50;13.32;;;17.80;99.90;;;;;;4996697;28;20056;-76
2022/08/11 00:32:31;;;;;;;18.38;16.48;;;17.70;99.90;;;;;;4995723;28;20046;-76
2022/08/11 00:34:58;;;;;;;24.45;17.65;;;17.70;99.90;;;;;;4995360;28;20059;-77
2022/08/11 00:37:25;;;;;;;16.02;14.43;;;17.70;99.90;;;;;;4995715;28;20053;-77
2022/08/11 00:39:54;;;;;;;25.05;17.33;;;17.70;99.90;;;;;;4995966;28;20061;-76
2022/08/11 00:42:26;;;;;;;21.38;16.83;;;17.70;99.90;;;;;;4978919;28;20073;-76
2022/08/11 00:44:55;;;;;;;22.20;18.90;;;17.60;99.90;;;;;;4995741;28;20058;-77
2022/08/11 00:47:21;;;;;;;15.23;13.43;;;17.70;99.90;;;;;;4995648;28;20488;-77
2022/08/11 00:50:24;;;;;;;14.75;13.23;;;17.60;99.90;;;;;;4995226;28;20508;-76
2022/08/11 00:52:55;;;;;;;20.67;16.45;;;17.60;99.90;;;;;;4995565;28;20081;-76
2022/08/11 00:55:53;;;;;;;19.17;16.52;;;17.60;99.90;;;;;;4995342;28;20054;-77
2022/08/11 00:59:03;;;;;;;19.30;15.98;;;17.50;99.90;;;;;;4995863;28;20050;-76
2022/08/11 01:01:37;;;;;;;17.60;14.77;;;17.50;99.90;;;;;;4958379;28;20114;-76
2022/08/11 01:04:38;;;;;;;17.25;13.00;;;17.50;99.90;;;;;;4995336;28;20129;-77
2022/08/11 01:07:38;;;;;;;17.98;13.52;;;17.50;99.90;;;;;;4994366;28;20455;-77
2022/08/11 01:10:32;;;;;;;13.57;11.20;;;17.40;99.90;;;;;;4995445;28;20050;-77
2022/08/11 01:13:13;;;;;;;13.63;10.75;;;17.40;99.90;;;;;;4977803;28;20039;-76
2022/08/11 01:15:58;;;;;;;10.95;9.15;;;17.40;99.90;;;;;;4994299;28;20370;-77
2022/08/11 01:18:54;;;;;;;12.32;7.70;;;17.40;99.90;;;;;;4995173;28;20457;-76
2022/08/11 01:21:58;;;;;;;12.68;9.60;;;17.40;99.90;;;;;;4994635;28;20483;-76
2022/08/11 01:24:34;;;;;;;10.32;8.27;;;17.40;99.90;;;;;;4977688;28;20058;-76
2022/08/11 01:27:20;;;;;;;8.93;6.65;;;17.40;99.90;;;;;;4994837;28;20067;-77
2022/08/11 01:30:16;;;;;;;8.93;7.15;;;17.40;99.90;;;;;;4993882;28;20050;-77
2022/08/11 01:33:18;;;;;;;12.10;7.72;;;17.40;99.90;;;;;;4994828;28;20089;-77
2022/08/11 01:35:50;;;;;;;11.80;7.15;;;17.30;99.90;;;;;;4995037;28;20144;-77
2022/08/11 01:38:37;;;;;;;6.47;5.88;;;17.30;99.90;;;;;;4995034;28;20457;-77
2022/08/11 01:41:24;;;;;;;8.30;5.80;;;17.20;99.90;;;;;;4993430;28;20049;-77
2022/08/11 01:44:37;;;;;;;7.57;5.85;;;17.20;99.90;;;;;;4994431;28;20108;-77
2022/08/11 01:50:38;;;;;;;9.23;5.40;;;17.10;99.90;;;;;;4994416;28;20069;-77
2022/08/11 01:53:04;;;;;;;7.60;6.82;;;17.10;99.90;;;;;;4993120;28;20043;-77
2022/08/11 01:55:52;;;;;;;6.03;5.30;;;17.10;99.90;;;;;;4994433;28;20130;-77
2022/08/11 01:58:47;;;;;;;5.25;4.75;;;17.00;99.90;;;;;;4994351;28;20478;-77
2022/08/11 02:01:27;;;;;;;7.43;5.15;;;17.00;99.90;;;;;;4994053;28;20046;-77
2022/08/11 02:04:17;;;;;;;6.32;5.28;;;17.00;99.90;;;;;;4976807;28;20042;-77
2022/08/11 02:07:01;;;;;;;6.90;5.00;;;16.90;99.90;;;;;;4994617;28;20064;-77
2022/08/11 02:09:40;;;;;;;6.97;5.32;;;16.90;99.90;;;;;;4994429;28;20057;-76
2022/08/11 02:12:40;;;;;;;7.60;5.75;;;16.80;99.90;;;;;;4994407;28;20249;-76
2022/08/11 02:15:33;;;;;;;6.57;5.70;;;16.80;99.90;;;;;;4993872;28;20514;-77
2022/08/11 02:18:20;;;;;;;9.18;4.90;;;16.70;99.90;;;;;;4994023;28;20050;-77
2022/08/11 02:24:02;;;;;;;7.00;5.53;;;16.80;99.90;;;;;;4993757;28;20090;-76
2022/08/11 02:26:43;;;;;;;6.35;5.75;;;16.80;99.90;;;;;;4993596;28;20533;-76
2022/08/11 02:29:21;;;;;;;6.65;5.90;;;16.80;99.90;;;;;;4976254;28;20054;-76
2022/08/11 02:34:55;;;;;;;11.18;6.70;;;16.80;99.90;;;;;;4993806;28;20050;-76
2022/08/11 02:37:32;;;;;;;6.20;4.38;;;16.80;99.90;;;;;;4993588;28;20055;-76
2022/08/11 02:39:59;;;;;;;9.82;6.97;;;16.80;99.90;;;;;;4993490;28;20050;-76
2022/08/11 02:42:43;;;;;;;12.02;5.13;;;16.80;99.90;;;;;;4993463;28;20046;-77
2022/08/11 02:45:17;;;;;;;7.55;4.60;;;16.80;99.90;;;;;;4993247;28;20466;-76
2022/08/11 02:51:06;;;;;;;7.28;4.82;;;16.80;99.90;;;;;;4993656;28;20046;-76
2022/08/11 02:53:53;;;;;;;9.52;6.10;;;16.70;99.90;;;;;;4993399;28;20133;-77
2022/08/11 02:56:28;;;;;;;7.43;5.10;;;16.70;99.90;;;;;;4976746;28;20058;-76
2022/08/11 02:59:50;;;;;;;8.68;6.20;;;16.70;99.90;;;;;;4993552;28;20046;-76
2022/08/11 03:02:30;;;;;;;8.23;6.55;;;16.70;99.90;;;;;;4895646;29;20040;-76
2022/08/11 03:05:12;;;;;;;9.60;6.18;;;17.30;99.90;;;;;;4993296;28;20045;-77
2022/08/11 03:08:00;;;;;;;6.40;4.95;;;16.60;99.90;;;;;;4993349;28;20038;-76
2022/08/11 03:10:31;;;;;;;7.00;5.57;;;16.70;99.90;;;;;;4993783;28;20529;-77
2022/08/11 03:19:20;;;;;;;8.10;5.95;;;16.50;99.90;;;;;;4975812;28;20451;-76
2022/08/11 03:22:08;;;;;;;8.00;6.05;;;16.60;99.90;;;;;;4992650;28;20498;-77
2022/08/11 03:25:01;;;;;;;7.95;5.00;;;16.50;99.90;;;;;;4992772;28;20054;-76
2022/08/11 03:27:45;;;;;;;6.55;5.50;;;16.50;99.90;;;;;;4975778;28;20055;-76
2022/08/11 03:30:17;;;;;;;11.35;7.38;;;16.40;99.90;;;;;;4993529;28;20121;-76
2022/08/11 03:36:14;;;;;;;6.28;5.32;;;16.40;99.90;;;;;;4992915;28;20105;-76
2022/08/11 03:39:05;;;;;;;8.95;7.03;;;16.40;99.90;;;;;;4992960;28;20046;-76
2022/08/11 03:41:44;;;;;;;9.38;6.15;;;16.40;99.90;;;;;;4996979;28;20077;-76
2022/08/11 03:44:47;;;;;;;8.50;6.55;;;16.40;99.90;;;;;;4996725;28;20050;-76
2022/08/11 03:47:38;;;;;;;13.18;7.63;;;16.30;99.90;;;;;;4996564;28;20054;-76
2022/08/11 03:50:16;;;;;;;10.05;6.70;;;16.30;99.90;;;;;;4985688;28;20493;-76
2022/08/11 03:53:26;;;;;;;8.30;5.82;;;16.30;99.90;;;;;;4996552;28;20042;-76
2022/08/11 03:56:26;;;;;;;5.97;5.35;;;16.30;99.90;;;;;;4978855;28;20118;-76
2022/08/11 03:59:27;;;;;;;8.73;6.63;;;16.30;99.90;;;;;;4996548;28;20081;-76
2022/08/11 04:02:17;;;;;;;7.57;5.95;;;16.20;99.90;;;;;;4996312;28;20117;-76
2022/08/11 04:04:53;;;;;;;10.13;6.75;;;16.20;99.90;;;;;;4996324;28;20071;-75
2022/08/11 04:07:37;;;;;;;9.40;6.05;;;16.20;99.90;;;;;;4996230;28;20058;-76
2022/08/11 04:10:40;;;;;;;7.88;6.07;;;16.20;99.90;;;;;;4996167;28;20050;-75
2022/08/11 04:13:30;;;;;;;10.50;6.80;;;16.20;99.90;;;;;;4996124;28;20042;-76
2022/08/11 04:16:37;;;;;;;12.70;8.05;;;16.10;99.90;;;;;;4996260;28;20451;-76
2022/08/11 04:19:38;;;;;;;9.40;8.13;;;16.10;99.90;;;;;;4995090;28;20405;-76
2022/08/11 04:22:38;;;;;;;13.10;8.25;;;16.10;99.90;;;;;;4929760;28;20096;-75
2022/08/11 04:25:11;;;;;;;9.73;7.20;;;16.10;99.90;;;;;;4996030;28;20046;-75
2022/08/11 04:27:36;;;;;;;;;;;16.00;99.90;;;;;;4996580;28;20127;-76
2022/08/11 04:30:25;;;;;;;10.60;7.25;;;16.00;99.90;;;;;;4996007;28;19964;-75
2022/08/11 04:32:57;;;;;;;18.52;8.30;;;16.00;99.90;;;;;;4950147;28;20054;-75
2022/08/11 04:35:52;;;;;;;9.57;7.30;;;16.00;99.90;;;;;;4978917;28;20053;-76
2022/08/11 04:38:57;;;;;;;34.22;8.18;;;16.00;99.90;;;;;;4978464;28;20098;-76
2022/08/11 04:45:19;;;;;;;14.52;7.20;;;16.10;99.90;;;;;;4995645;28;20064;-76
2022/08/11 05:05:29;;;;;;;7.85;5.28;;;16.20;99.90;;;;;;4965275;28;20525;-76
2022/08/11 05:07:08;;;;;;;7.15;5.43;;;16.20;99.90;;;;;;4994912;28;20180;-75
2022/08/11 05:10:09;;;;;;;8.00;5.57;;;16.20;99.90;;;;;;4995393;28;20050;-76
2022/08/11 05:36:11;;;;;;;13.05;9.15;;;16.70;99.90;;;;;;4995155;28;20455;-76
2022/08/11 05:58:09;;;;;;;11.10;8.75;;;17.20;99.90;;;;;;4994267;28;20061;-77
2022/08/11 06:00:44;;;;;;;12.65;8.98;;;17.30;99.90;;;;;;4994315;28;20049;-77
2022/08/11 06:03:19;;;;;;;10.23;7.22;;;17.40;99.90;;;;;;4976606;28;20480;-77
2022/08/11 06:05:44;;;;;;;14.50;10.02;;;17.40;99.90;;;;;;4994356;28;20054;-76
2022/08/11 06:08:12;;;;;;;10.55;8.32;;;17.60;99.90;;;;;;4994534;28;20453;-76
2022/08/11 06:10:41;;;;;;;13.65;9.27;;;17.70;99.90;;;;;;4994366;28;20046;-76
2022/08/11 06:13:09;;;;;;;18.98;9.48;;;17.70;99.90;;;;;;4993886;28;20459;-76
2022/08/11 06:15:44;;;;;;;10.73;8.65;;;17.80;99.90;;;;;;4993789;28;20121;-76
2022/08/11 06:18:12;;;;;;;12.05;8.90;;;17.90;99.90;;;;;;4993893;28;20054;-77
2022/08/11 06:20:53;;;;;;;13.27;8.77;;;18.10;99.90;;;;;;4977061;28;20054;-77
2022/08/11 06:23:22;;;;;;;12.77;8.88;;;18.20;99.90;;;;;;4993601;28;20089;-76
2022/08/11 06:25:51;;;;;;;15.85;9.77;;;18.30;99.90;;;;;;4994115;28;20042;-76
2022/08/11 06:28:19;;;;;;;10.18;8.50;;;18.40;99.90;;;;;;4992436;28;20054;-76
2022/08/11 06:30:46;;;;;;;11.32;7.95;;;18.40;99.90;;;;;;4993582;28;20133;-76
2022/08/11 06:33:29;;;;;;;12.15;8.13;;;18.40;99.90;;;;;;4993347;28;20125;-76
2022/08/11 06:36:14;;;;;;;13.43;9.15;;;18.50;99.90;;;;;;4976422;28;20484;-76
2022/08/11 06:38:49;;;;;;;9.95;8.05;;;18.60;99.90;;;;;;4994054;28;20047;-76
2022/08/11 06:41:33;;;;;;;13.18;7.00;;;19.40;99.90;;;;;;4993895;28;20061;-76
2022/08/11 06:44:25;;;;;;;11.55;7.70;;;18.90;99.90;;;;;;4993035;28;20483;-76
2022/08/11 06:46:54;;;;;;;10.82;8.07;;;19.10;99.90;;;;;;4963023;28;20077;-76
2022/08/11 06:52:12;;;;;;;11.98;8.45;;;19.50;99.90;;;;;;4993372;28;20058;-77
2022/08/11 06:54:49;;;;;;;9.32;7.45;;;19.70;99.90;;;;;;4991918;28;20052;-78
2022/08/11 07:02:52;;;;;;;9.38;6.57;;;23.20;99.90;;;;;;4993002;28;20485;-77
2022/08/11 07:05:47;;;;;;;7.78;6.50;;;24.90;99.90;;;;;;4992925;28;20061;-77
2022/08/11 07:17:42;;;;;;;7.90;6.43;;;28.80;99.90;;;;;;4979915;28;20050;-77
2022/08/11 07:28:54;;;;;;;6.22;5.32;;;29.00;98.20;;;;;;4996815;28;20054;-77
2022/08/11 07:31:39;;;;;;;7.68;5.00;;;29.20;97.40;;;;;;4979590;28;20057;-77
2022/08/11 07:34:12;;;;;;;6.78;5.22;;;30.00;96.30;;;;;;4996756;28;20051;-78
2022/08/11 07:36:47;;;;;;;9.73;5.45;;;30.50;92.30;;;;;;4996504;28;20050;-77
2022/08/11 07:39:21;;;;;;;5.88;4.70;;;31.10;93.00;;;;;;4996250;28;20047;-75
2022/08/11 07:41:49;;;;;;;8.98;4.97;;;31.10;91.80;;;;;;4996075;28;20046;-77
2022/08/11 07:44:16;;;;;;;7.22;4.43;;;31.50;92.10;;;;;;4996209;28;20049;-77
2022/08/11 07:52:29;;;;;;;4.82;4.32;;;32.60;89.30;;;;;;4996390;28;20042;-77
2022/08/11 07:55:01;;;;;;;4.95;3.78;;;33.00;87.40;;;;;;4996356;28;20180;-77
2022/08/11 08:19:32;;;;;;;9.75;2.53;;;34.00;78.90;;;;;;4995993;28;20148;-75
2022/08/11 08:21:58;;;;;;;2.47;2.20;;;34.50;78.20;;;;;;4995801;28;20050;-73
2022/08/11 08:24:24;;;;;;;4.28;2.35;;;34.60;77.00;;;;;;4996245;28;20046;-75
2022/08/11 08:27:00;;;;;;;5.85;3.10;;;34.70;75.80;;;;;;4995718;28;20053;-73
2022/08/11 08:32:20;;;;;;;4.88;2.58;;;34.80;73.70;;;;;;4995259;28;20439;-74
2022/08/11 08:34:49;;;;;;;5.30;2.42;;;33.60;75.70;;;;;;4995555;28;20054;-73
2022/08/11 08:37:18;;;;;;;3.25;2.40;;;33.70;75.60;;;;;;4995474;28;20058;-73
2022/08/11 08:39:46;;;;;;;3.60;2.70;;;33.70;74.50;;;;;;4977937;28;20149;-73
2022/08/11 08:42:22;;;;;;;5.75;2.53;;;33.90;75.50;;;;;;4977605;28;20058;-75
2022/08/11 08:44:54;;;;;;;5.70;2.40;;;34.30;74.80;;;;;;4994889;28;20448;-73
2022/08/11 08:47:22;;;;;;;5.07;2.60;;;34.20;74.40;;;;;;4977848;28;20049;-73
2022/08/11 08:49:51;;;;;;;4.57;2.20;;;34.00;75.10;;;;;;4978141;28;20054;-73
2022/08/11 08:52:22;;;;;;;4.38;2.15;;;33.90;74.30;;;;;;4978210;28;20046;-73
2022/08/11 08:54:53;;;;;;;3.90;1.97;;;33.70;73.20;;;;;;4978308;28;20084;-73
2022/08/11 08:57:22;;;;;;;5.85;2.17;;;33.40;73.10;;;;;;4978043;28;20281;-74
2022/08/11 08:59:49;;;;;;;5.35;2.42;;;33.10;74.30;;;;;;4994888;28;20096;-74
2022/08/11 09:02:18;;;;;;;2.25;1.98;;;33.50;73.40;;;;;;4995332;28;20081;-74
2022/08/11 09:04:45;;;;;;;2.28;1.90;;;33.40;73.80;;;;;;4995213;28;20121;-73
2022/08/11 09:07:14;;;;;;;4.45;2.15;;;33.20;73.90;;;;;;4995193;28;20122;-73
2022/08/11 09:09:48;;;;;;;4.70;1.88;;;33.30;73.60;;;;;;4977873;28;20413;-75
2022/08/11 09:12:16;;;;;;;4.38;2.00;;;33.80;72.10;;;;;;4993682;28;20096;-75
2022/08/11 09:15:04;;;;;;;2.55;1.50;;;34.00;72.60;;;;;;4994540;28;20050;-74
2022/08/11 09:17:35;;;;;;;3.00;1.90;;;34.00;71.90;;;;;;4994926;28;20050;-75
2022/08/11 09:20:06;;;;;;;5.78;1.90;;;34.20;69.50;;;;;;4978262;28;20054;-75
2022/08/11 09:28:13;;;;;;;4.97;2.22;;;34.10;70.40;;;;;;4994891;28;20062;-74
2022/08/11 09:30:44;;;;;;;3.40;2.00;;;34.50;68.60;;;;;;4994849;28;20061;-75
2022/08/11 09:33:14;;;;;;;2.50;1.83;;;34.90;68.90;;;;;;4995264;28;20104;-75
2022/08/11 09:35:45;;;;;;;4.25;1.70;;;34.90;67.80;;;;;;4977630;28;20046;-75
2022/08/11 09:41:00;;;;;;;12.63;2.20;;;35.60;65.10;;;;;;4995162;28;20060;-75
2022/08/11 09:46:12;;;;;;;3.10;1.50;;;35.90;64.60;;;;;;4979986;28;20062;-75
2022/08/11 09:48:42;;;;;;;1.65;1.55;;;35.70;64.60;;;;;;4994849;28;20100;-74
2022/08/11 09:51:09;;;;;;;2.38;1.48;;;35.10;63.20;;;;;;4977795;28;20042;-75
2022/08/11 09:53:42;;;;;;;4.32;3.22;;;35.30;64.00;;;;;;4994648;28;20043;-74
2022/08/11 09:59:11;;;;;;;2.25;1.70;;;35.60;60.50;;;;;;4994475;28;20050;-74
2022/08/11 10:01:41;;;;;;;3.45;1.80;;;35.90;62.20;;;;;;4994351;28;20486;-75
2022/08/11 10:04:16;;;;;;;4.05;1.40;;;35.50;62.20;;;;;;4994244;28;20046;-76
2022/08/11 10:07:02;;;;;;;1.80;1.70;;;35.60;60.50;;;;;;4994633;28;20054;-74
2022/08/11 10:09:49;;;;;;;2.20;1.30;;;36.00;60.20;;;;;;4994194;28;20065;-74
2022/08/11 10:12:34;;;;;;;2.72;1.40;;;36.00;59.90;;;;;;4992791;28;20047;-74
2022/08/11 10:20:47;;;;;;;2.13;1.77;;;35.80;59.80;;;;;;4994323;28;20146;-74
2022/08/11 10:28:42;;;;;;;3.88;1.90;;;35.70;58.80;;;;;;4993797;28;20137;-74
2022/08/11 10:34:00;;;;;;;3.05;1.50;;;35.60;58.40;;;;;;4993968;28;20058;-75
2022/08/11 10:36:45;;;;;;;1.63;1.42;;;35.80;57.90;;;;;;4994043;28;20067;-74
2022/08/11 10:39:16;;;;;;;3.38;1.77;;;35.90;57.80;;;;;;4993818;28;20050;-75
2022/08/11 10:44:34;;;;;;;1.80;1.70;;;36.20;58.10;;;;;;4979402;28;20050;-73
2022/08/11 10:51:11;;;;;;;3.60;1.75;;;36.30;56.50;;;;;;4993570;28;19961;-75
2022/08/11 11:00:46;;;;;;;1.35;1.08;;;35.80;56.90;;;;;;4993293;28;20050;-74
2022/08/11 11:03:12;;;;;;;2.78;1.45;;;35.50;57.20;;;;;;4993242;28;20046;-75
2022/08/11 11:05:39;;;;;;;1.88;1.60;;;34.80;56.70;;;;;;4993292;28;20519;-73
2022/08/11 11:11:05;;;;;;;4.13;2.00;;;34.00;56.20;;;;;;4993228;28;20149;-74
2022/08/11 11:19:11;;;;;;;1.73;1.40;;;33.40;56.50;;;;;;4956036;28;20450;-74
2022/08/11 11:21:38;;;;;;;2.30;1.67;;;33.20;56.60;;;;;;4993302;28;20359;-75
2022/08/11 11:24:50;;;;;;;1.83;1.60;;;33.10;56.40;;;;;;4993144;28;20046;-75
2022/08/11 11:27:43;;;;;;;2.08;1.75;;;32.90;56.20;;;;;;4994033;28;20048;-74
2022/08/11 11:30:11;;;;;;;1.58;1.33;;;32.60;56.20;;;;;;4993277;28;20117;-75
2022/08/11 11:33:03;;;;;;;1.75;1.52;;;32.30;56.10;;;;;;4993384;28;20121;-74
2022/08/11 11:35:47;;;;;;;2.63;1.77;;;32.20;56.70;;;;;;4992982;28;20481;-74
2022/08/11 11:38:13;;;;;;;5.55;2.35;;;32.10;56.20;;;;;;4992999;28;20062;-75
2022/08/11 11:40:39;;;;;;;2.88;1.75;;;32.00;56.10;;;;;;4993402;28;20438;-75
2022/08/11 11:43:06;;;;;;;3.53;1.70;;;32.00;55.80;;;;;;4992990;28;20051;-74
2022/08/11 11:45:32;;;;;;;4.57;1.50;;;31.80;55.60;;;;;;4992921;28;20082;-75
2022/08/11 11:47:59;;;;;;;4.90;2.28;;;31.70;56.10;;;;;;4993169;28;20049;-74
2022/08/11 11:50:27;;;;;;;1.85;1.60;;;31.80;56.30;;;;;;4975701;28;20046;-75
2022/08/11 11:52:54;;;;;;;2.45;1.58;;;31.90;56.70;;;;;;4992751;28;20564;-75
2022/08/11 11:55:24;;;;;;;3.97;2.30;;;31.90;56.10;;;;;;4993208;28;20050;-75
2022/08/11 12:03:25;;;;;;;2.88;1.40;;;31.90;56.50;;;;;;4996983;28;20108;-75
2022/08/11 12:05:52;;;;;;;1.70;1.55;;;31.90;56.60;;;;;;4995970;28;20481;-74
2022/08/11 12:08:20;;;;;;;3.22;1.98;;;32.00;56.50;;;;;;4996512;28;20464;-73
2022/08/11 12:13:51;;;;;;;1.95;1.80;;;31.70;56.50;;;;;;4995974;28;20510;-74
2022/08/11 12:16:19;;;;;;;1.70;1.58;;;31.60;56.50;;;;;;4996317;28;20050;-75
2022/08/11 12:18:48;;;;;;;3.03;1.42;;;31.60;56.50;;;;;;4978633;28;20464;-75
2022/08/11 12:21:15;;;;;;;2.88;1.80;;;31.30;56.40;;;;;;4996216;28;20157;-74
2022/08/11 12:29:13;;;;;;;1.95;1.75;;;31.10;56.30;;;;;;4978891;28;20054;-75
2022/08/11 12:31:40;;;;;;;1.83;1.60;;;31.00;56.80;;;;;;4996200;28;20053;-73
2022/08/11 12:34:11;;;;;;;3.38;1.90;;;31.00;57.30;;;;;;4978645;28;20487;-75
2022/08/11 12:37:04;;;;;;;2.75;1.70;;;31.00;57.10;;;;;;4996229;28;20050;-73
2022/08/11 12:45:27;;;;;;;2.75;1.60;;;31.10;57.00;;;;;;4995021;28;20054;-75
2022/08/11 12:54:19;;;;;;;1.83;1.58;;;31.10;56.20;;;;;;4995943;28;20042;-74
2022/08/11 13:05:10;;;;;;;1.58;1.35;;;31.50;56.40;;;;;;4994814;28;20054;-74
2022/08/11 13:07:39;;;;;;;2.38;1.55;;;31.60;55.80;;;;;;4994873;28;20046;-73
2022/08/11 13:10:07;;;;;;;2.22;1.67;;;31.70;55.50;;;;;;4978007;28;20463;-78
2022/08/11 13:12:49;;;;;;;4.30;1.70;;;31.70;55.40;;;;;;4993255;28;20050;-77
2022/08/11 13:15:23;;;;;;;1.40;1.30;;;31.80;55.30;;;;;;4994906;28;20065;-78
2022/08/11 13:17:51;;;;;;;3.28;1.30;;;31.90;55.20;;;;;;4976657;28;20490;-77
2022/08/11 13:20:23;;;;;;;4.35;1.77;;;31.70;55.60;;;;;;4994421;28;20050;-78
2022/08/11 13:22:52;;;;;;;6.65;1.98;;;31.70;56.10;;;;;;4994927;28;20038;-78
2022/08/11 13:25:22;;;;;;;2.42;2.22;;;31.60;56.40;;;;;;4994257;28;20050;-77
2022/08/11 13:27:50;;;;;;;3.10;1.70;;;31.50;56.10;;;;;;4994152;28;20051;-77
2022/08/11 13:33:01;;;;;;;1.70;1.60;;;31.40;56.80;;;;;;4976763;28;20066;-77
2022/08/11 13:35:29;;;;;;;2.85;1.38;;;31.50;56.70;;;;;;4994352;28;20088;-77
2022/08/11 13:37:57;;;;;;;4.35;1.77;;;31.60;57.00;;;;;;4994022;28;20077;-77
2022/08/11 13:40:24;;;;;;;2.22;1.73;;;31.40;56.60;;;;;;4976307;28;20478;-78
2022/08/11 13:42:51;;;;;;;2.65;1.35;;;31.50;56.80;;;;;;4994149;28;20069;-78
2022/08/11 13:45:18;;;;;;;2.67;1.67;;;31.60;56.70;;;;;;4993873;28;20049;-77
2022/08/11 13:47:45;;;;;;;2.05;1.55;;;31.50;56.70;;;;;;4993357;28;20046;-78
2022/08/11 13:50:13;;;;;;;2.13;1.92;;;31.40;56.70;;;;;;4976750;28;20046;-79
2022/08/11 13:52:40;;;;;;;2.28;1.98;;;31.60;56.60;;;;;;4994088;28;20203;-78
2022/08/11 13:55:20;;;;;;;3.00;1.70;;;31.50;56.80;;;;;;4993584;28;20499;-78
2022/08/11 13:57:51;;;;;;;1.65;1.45;;;31.40;56.60;;;;;;4993527;28;20050;-78
2022/08/11 14:00:17;;;;;;;2.50;1.65;;;31.30;56.90;;;;;;4993455;28;20447;-79
2022/08/11 14:02:46;;;;;;;4.43;1.73;;;31.20;56.90;;;;;;4993440;28;20042;-79
2022/08/11 14:05:16;;;;;;;4.10;1.40;;;31.30;56.90;;;;;;4993438;28;20115;-78
2022/08/11 14:07:56;;;;;;;3.53;1.60;;;31.40;57.00;;;;;;4976364;28;20046;-79
2022/08/11 14:10:30;;;;;;;2.72;1.50;;;31.50;56.50;;;;;;4993565;28;20050;-78
2022/08/11 14:15:56;;;;;;;1.92;1.77;;;31.40;56.90;;;;;;4993336;28;20108;-79
2022/08/11 14:18:27;;;;;;;3.35;1.60;;;31.20;57.20;;;;;;4993217;28;20117;-78
2022/08/11 14:23:46;;;;;;;3.22;1.55;;;31.40;57.10;;;;;;4993451;28;20058;-77
2022/08/11 14:26:25;;;;;;;2.05;1.38;;;31.40;56.80;;;;;;4993279;28;20050;-78
2022/08/11 14:28:59;;;;;;;1.40;1.30;;;31.50;56.50;;;;;;4976145;28;20130;-79
2022/08/11 14:31:27;;;;;;;2.58;1.33;;;31.50;56.90;;;;;;4993341;28;20050;-78
2022/08/11 14:34:01;;;;;;;1.40;1.30;;;31.50;57.00;;;;;;4975896;28;20607;-78
2022/08/11 14:36:34;;;;;;;3.42;1.50;;;31.50;57.60;;;;;;4993241;28;20120;-78
2022/08/11 14:39:11;;;;;;;4.50;1.52;;;31.50;57.90;;;;;;4993061;28;20114;-78
2022/08/11 14:47:16;;;;;;;3.40;1.60;;;31.10;57.80;;;;;;4962641;28;20060;-78
2022/08/11 14:49:43;;;;;;;3.35;1.80;;;31.00;58.40;;;;;;4993233;28;20152;-78
2022/08/11 14:52:14;;;;;;;2.80;1.52;;;31.00;58.40;;;;;;4975483;28;20061;-77
2022/08/11 14:57:28;;;;;;;2.45;2.25;;;30.60;58.70;;;;;;4993422;28;20061;-78
2022/08/11 14:59:59;;;;;;;3.17;1.55;;;30.50;59.10;;;;;;4992036;28;20501;-79
2022/08/11 15:05:10;;;;;;;4.43;1.70;;;30.50;58.80;;;;;;4993370;28;20058;-80
2022/08/11 15:07:37;;;;;;;2.40;1.80;;;30.40;59.00;;;;;;4993623;28;20129;-80
2022/08/11 15:10:07;;;;;;;4.13;1.80;;;30.40;59.00;;;;;;4993560;28;20058;-79
2022/08/11 15:12:35;;;;;;;4.95;1.50;;;30.60;59.00;;;;;;4993596;28;20066;-79
2022/08/11 15:17:52;;;;;;;3.90;1.83;;;30.70;59.70;;;;;;4978528;28;20054;-80
2022/08/11 15:26:01;;;;;;;3.70;1.45;;;30.50;59.50;;;;;;4975983;28;20150;-79
2022/08/11 15:45:49;;;;;;;1.70;1.60;;;29.90;60.70;;;;;;4996592;28;20058;-79
2022/08/11 15:48:34;;;;;;;3.10;2.17;;;29.70;61.10;;;;;;4996714;28;20481;-78
2022/08/11 15:51:33;;;;;;;3.33;1.60;;;29.80;61.90;;;;;;4996488;28;20286;-77
2022/08/11 15:54:07;;;;;;;4.88;1.58;;;29.50;62.50;;;;;;4996655;28;20050;-78
2022/08/11 15:56:35;;;;;;;4.03;1.92;;;29.30;62.50;;;;;;4979876;28;20186;-79
2022/08/11 16:04:35;;;;;;;3.65;1.70;;;29.20;64.10;;;;;;4996592;28;20069;-77
2022/08/11 16:07:07;;;;;;;2.08;1.85;;;29.30;64.00;;;;;;4978628;28;20050;-77
2022/08/11 16:09:37;;;;;;;2.83;2.10;;;29.30;64.60;;;;;;4994889;28;20047;-78
2022/08/11 16:12:06;;;;;;;3.17;1.83;;;29.30;65.20;;;;;;4996265;28;20046;-78
2022/08/11 16:17:26;;;;;;;5.38;1.80;;;29.00;65.80;;;;;;4978864;28;20058;-79
2022/08/11 16:19:55;;;;;;;5.50;2.05;;;28.90;66.30;;;;;;4995454;28;20061;-78
2022/08/11 16:22:36;;;;;;;2.80;1.60;;;28.80;66.50;;;;;;4995656;28;20054;-78
2022/08/11 16:25:04;;;;;;;4.20;2.10;;;28.80;66.60;;;;;;4995323;28;20497;-78
2022/08/11 16:27:33;;;;;;;3.40;2.15;;;28.70;66.70;;;;;;4995414;28;20049;-79
2022/08/11 16:30:00;;;;;;;2.50;1.85;;;28.60;67.10;;;;;;4995710;28;20054;-78
2022/08/11 16:32:27;;;;;;;2.70;1.85;;;28.60;67.30;;;;;;4995561;28;20082;-78
2022/08/11 16:40:38;;;;;;;3.78;2.25;;;28.40;67.90;;;;;;4995162;28;20526;-78
2022/08/11 16:48:46;;;;;;;3.05;1.85;;;28.30;68.20;;;;;;4995531;28;20093;-77
2022/08/11 16:51:13;;;;;;;1.98;1.80;;;28.30;68.40;;;;;;4995485;28;20082;-77
2022/08/11 16:53:43;;;;;;;2.33;1.88;;;28.10;68.30;;;;;;4995113;28;20042;-77
2022/08/11 16:56:15;;;;;;;2.42;1.50;;;28.10;69.00;;;;;;4977899;28;20061;-76
2022/08/11 17:01:28;;;;;;;4.32;2.10;;;27.90;69.30;;;;;;4978235;28;20061;-78
2022/08/11 17:18:01;;;;;;;2.25;1.98;;;27.90;71.70;;;;;;4994685;28;20544;-78
2022/08/11 17:20:29;;;;;;;6.85;2.05;;;27.80;71.30;;;;;;4994185;28;20054;-78
2022/08/11 17:25:40;;;;;;;4.75;2.33;;;27.60;72.10;;;;;;4993855;28;20057;-78
2022/08/11 17:28:07;;;;;;;3.95;1.85;;;27.40;72.60;;;;;;4993823;28;20054;-78
2022/08/11 17:36:06;;;;;;;3.25;2.00;;;27.30;73.50;;;;;;4993608;28;20501;-78
2022/08/11 17:38:32;;;;;;;5.65;2.15;;;27.30;73.70;;;;;;4993778;28;20049;-79
2022/08/11 17:49:19;;;;;;;2.63;2.10;;;27.00;75.80;;;;;;4993830;28;20196;-78
2022/08/11 18:00:05;;;;;;;3.17;2.13;;;26.70;78.20;;;;;;4993175;28;20129;-79
2022/08/11 18:05:28;;;;;;;1.95;1.83;;;26.60;80.00;;;;;;4993402;28;20050;-79
